Time;durP1;ratioP1;P1;durP2;ratioP2;P2;SDS_P1;SDS_P2;PMS_P1;PMS_P2;Temp;Humidity;BMP_temperature;BMP_pressure;BME280_temperature;BME280_humidity;BME280_pressure;Samples;Min_cycle;Max_cycle;Signal;HPM_P1;HPM_P2
2023/06/29 00:01:48;;;;;;;27.53;16.70;;;13.80;99.90;;;;;;4397145;28;659144;-70
2023/06/29 00:04:37;;;;;;;27.33;17.43;;;13.80;99.90;;;;;;4403089;28;658718;-70
2023/06/29 00:07:25;;;;;;;29.00;18.53;;;13.80;99.90;;;;;;4413431;28;659331;-70
2023/06/29 00:10:13;;;;;;;32.13;17.77;;;13.80;99.90;;;;;;4390970;28;658640;-70
2023/06/29 00:13:00;;;;;;;31.53;18.80;;;13.80;99.90;;;;;;4389944;28;658812;-70
2023/06/29 00:15:48;;;;;;;32.07;17.80;;;13.80;99.90;;;;;;4407601;28;659762;-70
2023/06/29 00:18:35;;;;;;;33.80;18.90;;;13.90;99.90;;;;;;4392605;28;658620;-70
2023/06/29 00:21:24;;;;;;;31.63;18.80;;;13.90;99.90;;;;;;4407928;28;659541;-70
2023/06/29 00:24:12;;;;;;;31.10;18.03;;;13.90;99.90;;;;;;4390147;28;658434;-70
2023/06/29 00:26:59;;;;;;;32.17;19.13;;;13.90;99.90;;;;;;4406661;28;658294;-70
2023/06/29 00:29:46;;;;;;;28.27;19.83;;;13.90;99.90;;;;;;4389567;28;660006;-70
2023/06/29 00:32:34;;;;;;;32.63;19.47;;;13.90;99.90;;;;;;4408173;28;659351;-69
2023/06/29 00:35:21;;;;;;;34.43;20.23;;;13.90;99.90;;;;;;4388535;28;658893;-70
2023/06/29 00:38:09;;;;;;;32.83;20.13;;;13.90;99.90;;;;;;4406313;28;659267;-70
2023/06/29 00:40:57;;;;;;;28.83;19.17;;;13.90;99.90;;;;;;4388832;28;659143;-70
2023/06/29 00:43:45;;;;;;;33.80;19.53;;;13.90;99.90;;;;;;4410090;28;658383;-70
2023/06/29 00:46:32;;;;;;;37.50;19.70;;;13.90;99.90;;;;;;4392843;28;659264;-70
2023/06/29 00:49:20;;;;;;;35.63;20.03;;;13.90;99.90;;;;;;4408505;28;659070;-70
2023/06/29 00:52:08;;;;;;;37.63;21.10;;;13.90;99.90;;;;;;4384162;28;659761;-70
2023/06/29 00:54:57;;;;;;;41.10;21.43;;;13.80;99.90;;;;;;4383256;28;658840;-70
2023/06/29 00:57:45;;;;;;;44.83;20.83;;;13.80;99.90;;;;;;4406078;28;658764;-70
2023/06/29 01:00:32;;;;;;;36.20;20.87;;;13.80;99.90;;;;;;4385183;28;659547;-70
2023/06/29 01:03:20;;;;;;;33.53;20.87;;;13.90;99.90;;;;;;4405452;28;658684;-70
2023/06/29 01:06:08;;;;;;;41.60;21.77;;;13.90;99.90;;;;;;4408360;28;660091;-70
2023/06/29 01:08:55;;;;;;;40.40;21.70;;;13.90;99.90;;;;;;4395432;28;659000;-70
2023/06/29 01:11:44;;;;;;;37.83;21.70;;;13.80;99.90;;;;;;4404448;28;659204;-70
2023/06/29 01:14:32;;;;;;;44.50;22.33;;;13.90;99.90;;;;;;4388606;28;658888;-70
2023/06/29 01:17:21;;;;;;;44.23;21.33;;;13.80;99.90;;;;;;4411255;28;658492;-70
2023/06/29 01:20:11;;;;;;;43.20;21.60;;;13.80;99.90;;;;;;4382920;28;659026;-70
2023/06/29 01:23:00;;;;;;;43.07;22.33;;;13.80;99.90;;;;;;4384125;28;659124;-70
2023/06/29 01:25:50;;;;;;;46.50;21.63;;;13.80;99.90;;;;;;4383668;28;659447;-69
2023/06/29 01:28:38;;;;;;;40.00;22.27;;;13.80;99.90;;;;;;4377297;28;659362;-70
2023/06/29 01:31:26;;;;;;;39.33;21.37;;;13.80;99.90;;;;;;4394423;28;658851;-70
2023/06/29 01:34:14;;;;;;;37.80;21.70;;;13.70;99.90;;;;;;4408966;28;659065;-70
2023/06/29 01:37:02;;;;;;;45.53;20.93;;;13.80;99.90;;;;;;4389960;28;659327;-70
2023/06/29 01:39:53;;;;;;;39.00;21.30;;;13.80;99.90;;;;;;4406109;28;659222;-70
2023/06/29 01:42:42;;;;;;;44.17;21.97;;;13.80;99.90;;;;;;4403170;28;658509;-70
2023/06/29 01:45:29;;;;;;;42.57;21.77;;;13.80;99.90;;;;;;4395104;28;658643;-69
2023/06/29 01:48:16;;;;;;;39.83;21.73;;;13.80;99.90;;;;;;4385528;28;658376;-70
2023/06/29 01:51:03;;;;;;;41.30;21.83;;;13.80;99.90;;;;;;4404529;28;659568;-70
2023/06/29 01:53:51;;;;;;;43.13;21.90;;;13.80;99.90;;;;;;4387574;28;659334;-70
2023/06/29 01:56:38;;;;;;;40.92;22.00;;;13.80;99.90;;;;;;4409621;28;658163;-70
2023/06/29 01:59:27;;;;;;;39.67;22.40;;;13.80;99.90;;;;;;4391582;28;659418;-70
2023/06/29 02:02:14;;;;;;;38.43;21.53;;;13.80;99.90;;;;;;4397228;28;660122;-70
2023/06/29 02:05:01;;;;;;;43.43;21.43;;;13.90;99.90;;;;;;4386343;28;658518;-70
2023/06/29 02:07:49;;;;;;;39.10;21.90;;;13.90;99.90;;;;;;4404122;28;658536;-70
2023/06/29 02:10:36;;;;;;;39.57;21.63;;;13.90;99.90;;;;;;4383619;28;659009;-70
2023/06/29 02:13:23;;;;;;;45.38;22.67;;;13.90;99.90;;;;;;4407876;28;659294;-70
2023/06/29 02:16:12;;;;;;;42.13;23.47;;;13.80;99.90;;;;;;4388667;28;660069;-70
2023/06/29 02:18:59;;;;;;;49.27;23.43;;;13.80;99.90;;;;;;4396322;28;658868;-70
2023/06/29 02:21:46;;;;;;;51.93;24.33;;;13.80;99.90;;;;;;4382426;28;658665;-70
2023/06/29 02:24:34;;;;;;;52.63;25.20;;;13.80;99.90;;;;;;4406380;28;658697;-70
2023/06/29 02:27:21;;;;;;;49.10;26.20;;;13.80;99.90;;;;;;4387838;28;658651;-70
2023/06/29 02:30:09;;;;;;;56.23;26.93;;;13.80;99.90;;;;;;4405887;28;659029;-70
2023/06/29 02:32:58;;;;;;;55.20;27.57;;;13.80;99.90;;;;;;4390779;28;659044;-70
2023/06/29 02:35:45;;;;;;;59.72;27.75;;;13.80;99.90;;;;;;4380386;28;658776;-70
2023/06/29 02:38:32;;;;;;;66.57;29.57;;;13.80;99.90;;;;;;4407776;28;659493;-70
2023/06/29 02:41:20;;;;;;;51.67;28.03;;;13.90;99.90;;;;;;4403222;28;658862;-70
2023/06/29 02:44:07;;;;;;;57.37;28.63;;;13.90;99.90;;;;;;4409814;28;658681;-70
2023/06/29 02:46:54;;;;;;;60.17;28.63;;;14.00;99.90;;;;;;4403554;28;658467;-70
2023/06/29 02:49:43;;;;;;;51.30;27.80;;;14.00;99.90;;;;;;4385603;28;659319;-70
2023/06/29 02:52:30;;;;;;;53.00;26.60;;;14.00;99.90;;;;;;4387961;28;658931;-70
2023/06/29 02:55:18;;;;;;;52.87;26.77;;;14.00;99.90;;;;;;4397520;28;659518;-70
2023/06/29 02:58:05;;;;;;;57.27;26.10;;;14.00;99.90;;;;;;4395209;28;658438;-70
2023/06/29 03:00:52;;;;;;;44.83;25.03;;;14.00;99.90;;;;;;4404092;28;659137;-70
2023/06/29 03:03:40;;;;;;;47.50;24.83;;;14.00;99.90;;;;;;4402962;28;658566;-70
2023/06/29 03:06:29;;;;;;;48.57;25.77;;;14.10;99.90;;;;;;4409112;28;658936;-70
2023/06/29 03:09:16;;;;;;;45.83;25.17;;;14.00;99.90;;;;;;4385123;28;658466;-70
2023/06/29 03:12:03;;;;;;;48.67;24.87;;;13.90;99.90;;;;;;4394188;28;658864;-70
2023/06/29 03:14:51;;;;;;;49.77;25.10;;;14.00;99.90;;;;;;4383570;28;658594;-70
2023/06/29 03:17:38;;;;;;;46.30;25.40;;;13.90;99.90;;;;;;4409847;28;659073;-70
2023/06/29 03:20:25;;;;;;;49.93;25.37;;;14.00;99.90;;;;;;4386356;28;660015;-70
2023/06/29 03:23:14;;;;;;;51.40;26.17;;;13.90;99.90;;;;;;4404144;28;659135;-70
2023/06/29 03:26:01;;;;;;;58.43;27.67;;;14.00;99.90;;;;;;4387416;28;658951;-70
2023/06/29 03:28:48;;;;;;;59.03;27.60;;;13.90;99.90;;;;;;4396709;28;659442;-70
2023/06/29 03:31:35;;;;;;;57.80;28.97;;;14.00;99.90;;;;;;4387232;28;659218;-70
2023/06/29 03:34:22;;;;;;;61.77;29.83;;;14.00;99.90;;;;;;4404917;28;660259;-70
2023/06/29 03:37:10;;;;;;;65.57;29.10;;;14.00;99.90;;;;;;4397469;28;658719;-70
2023/06/29 03:39:59;;;;;;;67.63;29.97;;;14.00;99.90;;;;;;4409058;28;658738;-70
2023/06/29 03:42:46;;;;;;;60.73;28.37;;;14.00;99.90;;;;;;4384266;28;658517;-70
2023/06/29 03:45:33;;;;;;;65.27;30.13;;;14.00;99.90;;;;;;4397781;28;659915;-70
2023/06/29 03:48:22;;;;;;;64.53;28.90;;;14.00;99.90;;;;;;4383678;28;658844;-70
2023/06/29 03:51:09;;;;;;;63.57;29.73;;;14.00;99.90;;;;;;4409371;28;657768;-70
2023/06/29 03:53:56;;;;;;;58.80;28.70;;;14.10;99.90;;;;;;4388718;28;658663;-70
2023/06/29 03:56:45;;;;;;;59.80;29.07;;;14.10;99.90;;;;;;4405817;28;660191;-70
2023/06/29 03:59:32;;;;;;;53.13;28.83;;;14.20;99.90;;;;;;4384960;28;658926;-70
2023/06/29 04:02:19;;;;;;;54.60;28.77;;;14.10;99.90;;;;;;4406700;28;658314;-70
2023/06/29 04:05:07;;;;;;;56.63;27.57;;;14.10;99.90;;;;;;4381742;28;658946;-70
2023/06/29 04:07:54;;;;;;;58.93;27.47;;;14.20;99.90;;;;;;4405540;28;658345;-70
2023/06/29 04:10:41;;;;;;;60.40;27.98;;;14.20;99.90;;;;;;4384082;28;658450;-70
2023/06/29 04:13:30;;;;;;;59.47;27.03;;;14.20;99.90;;;;;;4407058;28;659189;-70
2023/06/29 04:16:17;;;;;;;57.60;27.30;;;14.20;99.90;;;;;;4380711;28;659764;-70
2023/06/29 04:19:04;;;;;;;57.63;28.90;;;14.30;99.90;;;;;;4407295;28;658440;-70
2023/06/29 04:21:51;;;;;;;62.13;29.50;;;14.10;99.90;;;;;;4377634;28;660650;-70
2023/06/29 04:24:38;;;;;;;60.83;29.40;;;14.20;99.90;;;;;;4406465;28;659510;-70
2023/06/29 04:27:26;;;;;;;59.73;28.57;;;14.30;99.90;;;;;;4383912;28;658949;-70
2023/06/29 04:30:17;;;;;;;55.57;28.23;;;14.30;99.90;;;;;;4403572;28;659100;-71
2023/06/29 04:33:09;;;;;;;58.30;27.87;;;14.30;99.90;;;;;;4384249;28;658362;-70
2023/06/29 04:35:57;;;;;;;59.13;28.83;;;14.40;99.90;;;;;;4381122;28;659372;-70
2023/06/29 04:38:44;;;;;;;60.57;30.10;;;14.40;99.90;;;;;;4400951;28;658624;-70
2023/06/29 04:41:34;;;;;;;55.77;28.37;;;14.50;99.90;;;;;;4387462;28;658247;-70
2023/06/29 04:44:21;;;;;;;58.37;28.70;;;14.50;99.90;;;;;;4389780;28;659014;-70
2023/06/29 04:47:10;;;;;;;56.77;27.73;;;14.50;99.90;;;;;;4407338;28;659790;-70
2023/06/29 04:49:58;;;;;;;48.27;27.23;;;14.60;99.90;;;;;;4384762;28;659401;-71
2023/06/29 04:52:45;;;;;;;49.07;25.33;;;14.70;99.90;;;;;;4396639;28;658822;-70
2023/06/29 04:55:33;;;;;;;50.33;25.50;;;14.70;99.90;;;;;;4399865;28;660041;-70
2023/06/29 04:58:20;;;;;;;45.30;24.00;;;14.70;99.90;;;;;;4397635;28;658919;-71
2023/06/29 05:01:07;;;;;;;48.37;26.60;;;14.60;99.90;;;;;;4410373;28;658745;-71
2023/06/29 05:03:57;;;;;;;46.83;27.13;;;14.70;99.90;;;;;;4398299;28;658732;-70
2023/06/29 05:06:44;;;;;;;48.73;26.37;;;14.80;99.90;;;;;;4405225;28;659377;-71
2023/06/29 05:09:31;;;;;;;48.80;25.37;;;14.90;99.90;;;;;;4385403;28;659050;-70
2023/06/29 05:12:18;;;;;;;43.50;25.17;;;14.90;99.90;;;;;;4412871;28;659264;-70
2023/06/29 05:15:06;;;;;;;42.33;25.13;;;15.00;99.90;;;;;;4388362;28;658826;-71
2023/06/29 05:17:53;;;;;;;51.03;28.30;;;15.00;99.90;;;;;;4403201;28;659969;-70
2023/06/29 05:20:42;;;;;;;45.80;26.37;;;14.90;99.90;;;;;;4387093;28;658321;-70
2023/06/29 05:23:29;;;;;;;49.63;25.27;;;15.00;99.90;;;;;;4403670;28;658923;-70
2023/06/29 05:26:16;;;;;;;50.27;26.57;;;15.00;99.90;;;;;;4384196;28;658814;-71
2023/06/29 05:29:03;;;;;;;46.00;26.93;;;15.10;99.90;;;;;;4408022;28;659717;-69
2023/06/29 05:31:51;;;;;;;52.23;28.77;;;15.20;99.90;;;;;;4390310;28;659251;-68
2023/06/29 05:34:38;;;;;;;44.20;26.40;;;15.20;99.90;;;;;;4414138;28;659824;-69
2023/06/29 05:37:27;;;;;;;51.77;27.13;;;15.30;99.90;;;;;;4385399;28;658841;-69
2023/06/29 05:40:15;;;;;;;57.57;29.00;;;15.20;99.90;;;;;;4404823;28;658535;-69
2023/06/29 05:43:02;;;;;;;53.73;29.00;;;15.30;99.90;;;;;;4385054;28;659311;-69
2023/06/29 05:45:49;;;;;;;55.78;30.50;;;15.30;99.90;;;;;;4409823;28;658645;-69
2023/06/29 05:48:37;;;;;;;50.43;30.70;;;15.30;99.90;;;;;;4390562;28;658384;-69
2023/06/29 05:51:24;;;;;;;60.73;32.03;;;15.30;99.90;;;;;;4410001;28;658806;-70
2023/06/29 05:54:12;;;;;;;56.93;31.70;;;15.10;99.90;;;;;;4374329;28;658638;-69
2023/06/29 05:56:59;;;;;;;61.47;33.77;;;15.10;99.90;;;;;;4408672;28;658643;-75
2023/06/29 05:59:47;;;;;;;66.70;32.07;;;15.20;99.90;;;;;;4372325;28;660677;-74
2023/06/29 06:02:34;;;;;;;63.63;33.20;;;15.20;99.90;;;;;;4410336;28;659789;-74
2023/06/29 06:05:21;;;;;;;60.60;31.97;;;15.20;99.90;;;;;;4391178;28;658423;-74
2023/06/29 06:08:08;;;;;;;55.17;31.47;;;15.20;99.90;;;;;;4406816;28;659441;-75
2023/06/29 06:10:57;;;;;;;60.90;32.63;;;15.20;99.90;;;;;;4389291;28;658939;-74
2023/06/29 06:13:44;;;;;;;52.60;30.43;;;15.20;99.90;;;;;;4407513;28;659167;-74
2023/06/29 06:16:31;;;;;;;57.50;32.83;;;15.30;99.90;;;;;;4372641;28;658954;-74
2023/06/29 06:19:18;;;;;;;54.50;31.97;;;15.40;99.90;;;;;;4402870;28;658795;-74
2023/06/29 06:22:06;;;;;;;56.20;31.53;;;15.50;99.90;;;;;;4386165;28;658883;-74
2023/06/29 06:24:53;;;;;;;52.27;30.77;;;15.80;99.90;;;;;;4403948;28;659350;-74
2023/06/29 06:27:42;;;;;;;51.63;28.07;;;15.90;99.90;;;;;;4387474;28;658779;-74
2023/06/29 06:30:29;;;;;;;49.17;27.53;;;16.00;99.90;;;;;;4403377;28;658525;-74
2023/06/29 06:33:16;;;;;;;48.23;28.27;;;16.20;99.90;;;;;;4379207;28;658766;-74
2023/06/29 06:36:04;;;;;;;49.47;28.30;;;16.20;99.90;;;;;;4408066;28;658667;-74
2023/06/29 06:38:51;;;;;;;44.17;26.43;;;15.90;99.90;;;;;;4380793;28;658577;-74
2023/06/29 06:41:38;;;;;;;47.33;27.53;;;15.90;99.90;;;;;;4412080;28;658891;-74
2023/06/29 06:44:27;;;;;;;39.63;25.73;;;16.00;99.90;;;;;;4387862;28;658801;-74
2023/06/29 06:47:14;;;;;;;42.13;24.07;;;16.10;99.90;;;;;;4405219;28;658964;-74
2023/06/29 06:50:01;;;;;;;34.97;20.73;;;16.10;99.90;;;;;;4379815;28;659381;-74
2023/06/29 06:52:49;;;;;;;33.63;20.27;;;16.10;99.90;;;;;;4407270;28;658731;-74
2023/06/29 06:55:36;;;;;;;33.00;20.33;;;16.30;99.90;;;;;;4399608;28;658928;-74
2023/06/29 06:58:24;;;;;;;29.83;19.33;;;16.50;99.90;;;;;;4408595;28;659605;-74
2023/06/29 07:01:13;;;;;;;30.53;18.53;;;16.70;99.90;;;;;;4387753;28;658800;-74
2023/06/29 07:04:00;;;;;;;31.07;17.80;;;16.60;99.90;;;;;;4388275;28;659145;-74
2023/06/29 07:06:47;;;;;;;31.33;17.70;;;16.60;99.90;;;;;;4400809;28;660178;-74
2023/06/29 07:09:35;;;;;;;24.43;16.40;;;16.70;99.90;;;;;;4404054;28;658727;-73
2023/06/29 07:12:22;;;;;;;24.23;15.13;;;16.40;99.90;;;;;;4411550;28;659597;-74
2023/06/29 07:15:10;;;;;;;21.13;14.50;;;16.60;99.90;;;;;;4403966;28;658478;-74
2023/06/29 07:17:58;;;;;;;22.73;14.20;;;16.40;99.90;;;;;;4387187;28;659266;-74
2023/06/29 07:20:46;;;;;;;20.13;13.10;;;16.50;99.90;;;;;;4377083;28;658685;-74
2023/06/29 07:23:33;;;;;;;21.87;12.37;;;16.80;99.90;;;;;;4409312;28;658684;-75
2023/06/29 07:26:22;;;;;;;17.30;12.23;;;16.90;99.90;;;;;;4378070;28;658625;-74
2023/06/29 07:29:09;;;;;;;16.87;12.13;;;16.90;99.90;;;;;;4401258;28;658430;-73
2023/06/29 07:31:56;;;;;;;17.87;11.60;;;16.60;99.90;;;;;;4385470;28;658384;-74
2023/06/29 07:34:44;;;;;;;17.47;11.53;;;16.70;99.90;;;;;;4402324;28;658647;-74
2023/06/29 07:37:33;;;;;;;17.33;11.93;;;16.90;99.90;;;;;;4384947;28;660006;-74
2023/06/29 07:40:20;;;;;;;19.40;11.75;;;17.10;99.90;;;;;;4388772;28;658770;-74
2023/06/29 07:43:08;;;;;;;23.10;12.77;;;17.00;99.90;;;;;;4406228;28;659114;-75
2023/06/29 07:45:56;;;;;;;21.10;14.07;;;17.40;99.90;;;;;;4387789;28;658590;-74
2023/06/29 07:48:44;;;;;;;15.53;11.27;;;17.60;99.90;;;;;;4404952;28;658624;-74
2023/06/29 07:51:33;;;;;;;15.73;10.47;;;18.20;99.90;;;;;;4375315;28;658950;-74
2023/06/29 07:54:20;;;;;;;16.47;9.67;;;18.30;99.90;;;;;;4383656;28;659711;-75
2023/06/29 07:57:08;;;;;;;14.20;10.03;;;18.40;99.90;;;;;;4405178;28;658294;-74
2023/06/29 07:59:55;;;;;;;15.67;8.23;;;18.30;99.90;;;;;;4387651;28;659190;-74
2023/06/29 08:02:42;;;;;;;14.40;8.23;;;18.30;99.90;;;;;;4410106;28;658180;-73
2023/06/29 08:05:29;;;;;;;14.70;8.63;;;18.20;99.90;;;;;;4407825;28;657534;-75
2023/06/29 08:08:18;;;;;;;14.20;7.90;;;18.50;99.90;;;;;;4374197;28;658624;-74
2023/06/29 08:11:05;;;;;;;11.37;8.20;;;18.60;99.90;;;;;;4388719;28;657334;-75
2023/06/29 08:13:53;;;;;;;14.70;8.57;;;17.80;99.90;;;;;;4408765;28;658665;-75
2023/06/29 08:16:40;;;;;;;12.50;8.70;;;18.00;99.90;;;;;;4402136;28;657856;-74
2023/06/29 08:19:27;;;;;;;13.97;8.93;;;18.40;99.90;;;;;;4410009;28;657782;-75
2023/06/29 08:22:15;;;;;;;17.63;11.37;;;18.30;99.90;;;;;;4408111;28;657604;-74
2023/06/29 08:25:04;;;;;;;16.87;10.50;;;18.70;99.90;;;;;;4375222;28;659717;-73
2023/06/29 08:27:51;;;;;;;19.20;11.03;;;18.80;99.90;;;;;;4389065;28;659319;-73
2023/06/29 08:30:39;;;;;;;12.50;8.93;;;18.60;99.90;;;;;;4405585;28;658603;-75
2023/06/29 08:33:26;;;;;;;14.70;10.63;;;19.00;99.90;;;;;;4393354;28;657879;-73
2023/06/29 08:36:13;;;;;;;18.87;12.00;;;18.90;99.90;;;;;;4399996;28;658472;-75
2023/06/29 08:39:00;;;;;;;17.60;11.07;;;18.90;99.90;;;;;;4378875;28;658850;-74
2023/06/29 08:41:49;;;;;;;20.23;13.17;;;18.30;99.90;;;;;;4404966;28;659566;-74
2023/06/29 08:44:36;;;;;;;21.07;13.33;;;18.00;99.90;;;;;;4386935;28;658883;-75
2023/06/29 08:47:24;;;;;;;24.50;15.40;;;18.10;99.90;;;;;;4405514;28;660417;-74
2023/06/29 08:50:11;;;;;;;28.60;16.57;;;18.00;99.90;;;;;;4385713;28;659266;-74
2023/06/29 08:52:58;;;;;;;27.50;16.20;;;17.70;99.90;;;;;;4410210;28;658667;-73
2023/06/29 08:55:46;;;;;;;24.50;16.17;;;17.50;99.90;;;;;;4382662;28;658475;-73
2023/06/29 08:58:34;;;;;;;27.43;16.27;;;17.60;99.90;;;;;;4413718;28;659309;-74
2023/06/29 09:01:22;;;;;;;29.70;17.27;;;17.70;99.90;;;;;;4390683;28;658718;-75
2023/06/29 09:04:09;;;;;;;31.73;17.30;;;17.90;99.90;;;;;;4401297;28;658991;-76
2023/06/29 09:06:56;;;;;;;29.97;18.60;;;17.90;99.90;;;;;;4390644;28;658175;-74
2023/06/29 09:09:44;;;;;;;28.60;17.43;;;18.10;99.90;;;;;;4414463;28;658702;-73
2023/06/29 09:12:32;;;;;;;24.93;15.53;;;18.20;99.90;;;;;;4391346;28;659102;-74
2023/06/29 09:15:24;;;;;;;25.67;15.70;;;18.60;99.90;;;;;;4394979;28;658310;-74
2023/06/29 09:18:11;;;;;;;28.70;16.83;;;18.50;99.90;;;;;;4387735;28;658881;-73
2023/06/29 09:20:58;;;;;;;25.23;16.10;;;18.20;99.90;;;;;;4405648;28;659195;-73
2023/06/29 09:23:46;;;;;;;26.60;16.00;;;18.40;99.90;;;;;;4387282;28;658607;-75
2023/06/29 09:26:33;;;;;;;24.20;15.60;;;18.20;99.90;;;;;;4412842;28;658874;-74
2023/06/29 09:29:21;;;;;;;24.63;16.47;;;18.30;99.90;;;;;;4391004;28;658413;-73
2023/06/29 09:32:14;;;;;;;28.97;15.77;;;18.00;99.90;;;;;;4404364;28;659700;-73
2023/06/29 09:35:06;;;;;;;28.20;15.82;;;18.10;99.90;;;;;;4360561;28;659037;-73
2023/06/29 09:37:53;;;;;;;23.33;15.13;;;17.70;99.90;;;;;;4380854;28;658983;-75
2023/06/29 09:40:50;;;;;;;24.23;15.93;;;17.90;99.90;;;;;;4388383;28;658508;-73
2023/06/29 09:43:37;;;;;;;25.60;15.70;;;18.80;99.90;;;;;;4361091;28;659846;-74
2023/06/29 09:46:25;;;;;;;29.80;16.93;;;18.90;99.90;;;;;;4405956;28;659376;-73
2023/06/29 09:49:13;;;;;;;25.63;14.10;;;19.40;99.90;;;;;;4374548;28;658996;-75
2023/06/29 09:52:02;;;;;;;28.70;14.87;;;19.90;99.90;;;;;;4386013;28;659005;-76
2023/06/29 09:54:50;;;;;;;20.03;13.03;;;19.70;99.90;;;;;;4400719;28;658412;-73
2023/06/29 09:57:38;;;;;;;21.20;13.23;;;19.30;99.90;;;;;;4408580;28;659761;-72
2023/06/29 10:00:27;;;;;;;20.10;14.07;;;18.50;99.90;;;;;;4388801;28;658455;-73
2023/06/29 10:03:15;;;;;;;23.93;14.67;;;18.50;99.90;;;;;;4406200;28;658825;-74
2023/06/29 10:06:12;;;;;;;20.87;13.93;;;19.30;99.90;;;;;;4374971;28;659219;-76
2023/06/29 10:08:59;;;;;;;18.23;12.47;;;20.30;99.90;;;;;;4383467;28;658662;-74
2023/06/29 10:11:49;;;;;;;21.10;12.73;;;20.70;99.90;;;;;;4386079;28;658929;-74
2023/06/29 10:14:36;;;;;;;19.10;12.93;;;20.70;99.90;;;;;;4387237;28;658827;-76
2023/06/29 10:17:26;;;;;;;17.23;12.73;;;20.40;99.90;;;;;;4409463;28;658276;-74
2023/06/29 10:20:13;;;;;;;20.60;13.43;;;21.00;99.90;;;;;;4368712;28;658953;-75
2023/06/29 10:23:03;;;;;;;23.50;13.23;;;21.10;99.90;;;;;;4385012;28;658870;-74
2023/06/29 10:25:50;;;;;;;18.20;12.10;;;20.90;99.90;;;;;;4391196;28;658708;-74
2023/06/29 10:28:37;;;;;;;16.37;11.93;;;20.80;99.90;;;;;;4405184;28;659868;-74
2023/06/29 10:31:31;;;;;;;15.40;11.77;;;21.10;99.90;;;;;;4402292;28;658755;-74
2023/06/29 10:34:18;;;;;;;19.20;12.80;;;21.30;99.90;;;;;;4376427;28;658935;-73
2023/06/29 10:37:06;;;;;;;14.37;10.67;;;21.80;99.90;;;;;;4379489;28;660825;-75
2023/06/29 10:39:56;;;;;;;19.10;11.00;;;22.40;99.90;;;;;;4408309;28;658648;-74
2023/06/29 10:42:51;;;;;;;15.13;10.20;;;22.30;99.90;;;;;;4384115;28;659436;-73
2023/06/29 10:45:38;;;;;;;12.03;7.63;;;22.20;99.90;;;;;;4381285;28;659378;-74
2023/06/29 10:48:26;;;;;;;13.20;9.57;;;22.10;99.90;;;;;;4383314;28;657559;-73
2023/06/29 10:51:13;;;;;;;15.00;10.13;;;22.40;99.90;;;;;;4410019;28;658503;-73
2023/06/29 10:54:02;;;;;;;14.67;10.37;;;22.50;99.90;;;;;;4379656;28;658805;-72
2023/06/29 10:57:00;;;;;;;14.93;9.80;;;21.30;99.90;;;;;;4392120;28;659054;-72
2023/06/29 10:59:47;;;;;;;10.83;7.33;;;21.00;99.90;;;;;;4384073;28;657803;-73
2023/06/29 11:02:34;;;;;;;8.83;6.60;;;21.80;99.90;;;;;;4403368;28;656806;-73
2023/06/29 11:05:22;;;;;;;10.40;6.37;;;22.50;99.90;;;;;;4388335;28;656384;-73
2023/06/29 11:08:09;;;;;;;5.97;5.07;;;22.80;99.90;;;;;;4399715;28;657771;-73
2023/06/29 11:10:56;;;;;;;6.93;5.23;;;22.50;99.90;;;;;;4385480;28;657147;-74
2023/06/29 11:13:46;;;;;;;7.97;5.10;;;21.80;99.90;;;;;;4407685;28;657164;-73
2023/06/29 11:16:33;;;;;;;8.93;5.47;;;21.90;99.90;;;;;;4384556;28;656102;-73
2023/06/29 11:19:21;;;;;;;7.23;5.40;;;22.50;99.90;;;;;;4387521;28;656209;-73
2023/06/29 11:22:08;;;;;;;8.60;5.90;;;22.90;99.90;;;;;;4411217;28;656290;-73
2023/06/29 11:24:55;;;;;;;6.07;4.78;;;23.50;99.90;;;;;;4390063;28;657399;-73
2023/06/29 11:27:42;;;;;;;7.63;5.15;;;23.10;99.90;;;;;;4410963;28;656545;-73
2023/06/29 11:30:31;;;;;;;8.32;5.20;;;23.00;99.90;;;;;;4406653;28;656916;-73
2023/06/29 11:33:21;;;;;;;5.80;4.65;;;23.40;99.90;;;;;;4382966;28;658534;-74
2023/06/29 11:36:08;;;;;;;5.43;4.32;;;23.90;99.90;;;;;;4386383;28;656766;-74
2023/06/29 11:39:08;;;;;;;6.63;4.65;;;24.40;99.90;;;;;;4390497;28;656654;-74
2023/06/29 11:41:55;;;;;;;9.45;4.68;;;23.80;99.90;;;;;;4368292;28;656302;-74
2023/06/29 11:44:42;;;;;;;6.50;4.72;;;23.80;99.90;;;;;;4415115;28;657444;-74
2023/06/29 11:47:32;;;;;;;7.32;5.10;;;24.20;99.90;;;;;;4411757;28;656529;-74
2023/06/29 11:50:19;;;;;;;6.15;5.22;;;24.40;99.90;;;;;;4416001;28;656186;-75
2023/06/29 11:53:10;;;;;;;7.88;6.40;;;24.50;99.90;;;;;;4388924;28;656867;-73
2023/06/29 11:55:57;;;;;;;7.82;5.68;;;23.90;99.90;;;;;;4384823;28;656741;-75
2023/06/29 11:58:44;;;;;;;9.38;6.47;;;24.00;99.90;;;;;;4411278;28;656744;-75
2023/06/29 12:01:32;;;;;;;9.35;6.03;;;24.90;99.90;;;;;;4394668;28;657136;-75
2023/06/29 12:04:20;;;;;;;12.75;6.13;;;25.10;99.90;;;;;;4416591;28;656688;-74
2023/06/29 12:07:08;;;;;;;11.60;5.82;;;25.80;99.90;;;;;;4387144;28;657772;-75
2023/06/29 12:09:55;;;;;;;10.43;5.90;;;26.10;91.60;;;;;;4395872;28;657280;-74
2023/06/29 12:12:43;;;;;;;9.05;6.30;;;24.60;95.70;;;;;;4405186;28;657751;-75
2023/06/29 12:15:32;;;;;;;8.10;6.82;;;24.00;99.90;;;;;;4392516;28;656450;-74
2023/06/29 12:18:19;;;;;;;9.02;6.40;;;24.80;99.90;;;;;;4412192;28;656146;-74
2023/06/29 12:21:08;;;;;;;7.07;5.68;;;24.60;99.50;;;;;;4391455;28;657004;-74
2023/06/29 12:23:56;;;;;;;8.13;6.15;;;24.40;94.20;;;;;;4391687;28;656452;-75
2023/06/29 12:26:43;;;;;;;6.72;5.55;;;23.90;99.40;;;;;;4409952;28;657535;-74
2023/06/29 12:29:30;;;;;;;8.10;5.00;;;23.80;99.90;;;;;;4389153;28;656782;-74
2023/06/29 12:32:17;;;;;;;9.95;6.22;;;24.80;96.80;;;;;;4414855;28;657894;-74
2023/06/29 12:35:06;;;;;;;6.43;5.22;;;24.60;94.60;;;;;;4416756;28;656852;-75
2023/06/29 12:37:54;;;;;;;8.23;5.40;;;24.70;98.50;;;;;;4414919;28;656854;-76
2023/06/29 12:40:42;;;;;;;7.45;5.70;;;24.70;94.00;;;;;;4391595;28;656603;-74
2023/06/29 12:43:29;;;;;;;7.15;4.93;;;25.10;98.90;;;;;;4413046;28;656336;-73
2023/06/29 12:46:16;;;;;;;8.90;4.93;;;25.30;94.50;;;;;;4383992;28;656747;-73
2023/06/29 12:49:04;;;;;;;8.27;4.90;;;24.70;94.90;;;;;;4402697;28;656798;-72
2023/06/29 12:51:51;;;;;;;6.18;5.47;;;23.80;99.90;;;;;;4390868;28;656386;-73
2023/06/29 12:54:40;;;;;;;7.32;5.38;;;23.70;99.90;;;;;;4410341;28;657629;-72
2023/06/29 12:57:28;;;;;;;9.40;5.38;;;23.20;99.90;;;;;;4386616;28;657651;-72
2023/06/29 13:00:18;;;;;;;6.57;5.30;;;23.10;99.90;;;;;;4392287;28;657252;-73
2023/06/29 13:03:11;;;;;;;5.75;5.15;;;22.60;99.90;;;;;;4380061;28;656639;-73
2023/06/29 13:05:58;;;;;;;9.13;5.18;;;22.50;99.90;;;;;;4386232;28;657438;-72
2023/06/29 13:08:45;;;;;;;8.50;5.95;;;22.70;99.90;;;;;;4388700;28;656448;-73
2023/06/29 13:11:34;;;;;;;6.15;5.18;;;22.60;99.90;;;;;;4406495;28;657704;-73
2023/06/29 13:14:22;;;;;;;7.28;5.32;;;23.30;99.90;;;;;;4389031;28;656810;-72
2023/06/29 13:17:10;;;;;;;7.15;5.03;;;24.00;99.90;;;;;;4399848;28;656576;-72
2023/06/29 13:19:57;;;;;;;7.93;4.85;;;24.60;99.90;;;;;;4405179;28;657491;-72
2023/06/29 13:22:45;;;;;;;9.70;5.00;;;24.80;99.60;;;;;;4405308;28;656367;-71
2023/06/29 13:25:33;;;;;;;10.25;4.78;;;25.00;99.90;;;;;;4410066;28;658130;-71
2023/06/29 13:28:22;;;;;;;5.80;4.50;;;23.70;97.10;;;;;;4392237;28;657681;-70
2023/06/29 13:31:09;;;;;;;15.98;5.05;;;24.20;99.90;;;;;;4412251;28;655905;-71
2023/06/29 13:33:56;;;;;;;9.13;4.95;;;24.60;99.90;;;;;;4386978;28;657758;-71
2023/06/29 13:36:43;;;;;;;6.28;4.78;;;24.90;97.60;;;;;;4413114;28;657458;-70
2023/06/29 13:39:30;;;;;;;9.00;4.93;;;25.40;99.90;;;;;;4389603;28;656864;-71
2023/06/29 13:42:17;;;;;;;7.35;4.53;;;24.90;95.50;;;;;;4411253;28;657672;-70
2023/06/29 13:45:08;;;;;;;12.55;4.40;;;24.10;96.90;;;;;;4408452;28;656427;-71
2023/06/29 13:47:59;;;;;;;6.60;4.88;;;23.70;99.90;;;;;;4385318;28;658937;-71
2023/06/29 13:50:46;;;;;;;6.43;5.00;;;23.80;99.90;;;;;;4391430;28;656494;-71
2023/06/29 13:53:33;;;;;;;6.78;4.68;;;24.00;99.90;;;;;;4400606;28;658234;-70
2023/06/29 13:56:20;;;;;;;6.05;4.50;;;24.10;99.90;;;;;;4390059;28;656551;-71
2023/06/29 13:59:08;;;;;;;5.50;4.60;;;24.70;99.90;;;;;;4409922;28;658008;-70
2023/06/29 14:01:57;;;;;;;6.47;4.70;;;24.70;99.90;;;;;;4389632;28;656710;-73
2023/06/29 14:04:44;;;;;;;8.25;4.80;;;25.50;99.90;;;;;;4404033;28;656440;-73